Time;durP1;ratioP1;P1;durP2;ratioP2;P2;SDS_P1;SDS_P2;PMS_P1;PMS_P2;Temp;Humidity;BMP_temperature;BMP_pressure;BME280_temperature;BME280_humidity;BME280_pressure;Samples;Min_cycle;Max_cycle;Signal;HPM_P1;HPM_P2
2023/06/12 00:00:46;;;;;;;18.45;11.85;;;;;;;;;;5025322;28;20052;-61
2023/06/12 00:03:15;;;;;;;22.92;13.35;;;;;;;;;;5008308;28;20095;-61
2023/06/12 00:05:43;;;;;;;20.73;12.77;;;;;;;;;;5017373;28;20140;-61
2023/06/12 00:08:11;;;;;;;18.25;12.23;;;;;;;;;;5012252;28;20045;-62
2023/06/12 00:10:40;;;;;;;18.63;12.57;;;;;;;;;;5020973;28;20147;-56
2023/06/12 00:13:08;;;;;;;20.52;13.10;;;;;;;;;;5015063;28;20438;-62
2023/06/12 00:15:36;;;;;;;21.38;13.35;;;;;;;;;;5029616;28;20422;-61
2023/06/12 00:18:05;;;;;;;20.73;13.57;;;;;;;;;;5013821;28;20136;-61
2023/06/12 00:20:33;;;;;;;20.85;14.00;;;;;;;;;;5018197;28;20041;-61
2023/06/12 00:23:03;;;;;;;22.92;14.48;;;;;;;;;;5017418;28;20398;-62
2023/06/12 00:25:31;;;;;;;22.83;13.95;;;;;;;;;;5015402;28;20041;-61
2023/06/12 00:27:58;;;;;;;19.60;13.15;;;;;;;;;;5023030;28;20033;-62
2023/06/12 00:30:26;;;;;;;22.13;15.07;;;;;;;;;;5011713;28;20033;-61
2023/06/12 00:32:54;;;;;;;23.88;15.43;;;;;;;;;;5019799;28;20048;-62
2023/06/12 00:35:23;;;;;;;24.30;15.75;;;;;;;;;;5000719;28;20337;-62
2023/06/12 00:37:51;;;;;;;20.65;14.80;;;;;;;;;;5028339;28;20140;-61
2023/06/12 00:40:19;;;;;;;24.60;14.40;;;;;;;;;;5007672;28;20802;-61
2023/06/12 00:42:47;;;;;;;26.67;17.07;;;;;;;;;;5022152;28;20115;-61
2023/06/12 00:45:15;;;;;;;26.67;16.48;;;;;;;;;;5007855;28;20060;-61
2023/06/12 00:47:45;;;;;;;26.58;17.38;;;;;;;;;;5029858;28;20051;-60
2023/06/12 00:50:13;;;;;;;26.85;17.02;;;;;;;;;;5005173;28;20949;-61
2023/06/12 00:52:45;;;;;;;25.35;17.60;;;;;;;;;;5032010;28;20086;-60
2023/06/12 00:55:14;;;;;;;26.87;16.83;;;;;;;;;;5017159;28;20048;-61
2023/06/12 00:57:43;;;;;;;26.02;17.73;;;;;;;;;;5027584;28;20037;-61
2023/06/12 01:00:12;;;;;;;25.60;16.58;;;;;;;;;;5013766;28;20510;-61
2023/06/12 01:02:46;;;;;;;29.08;18.60;;;;;;;;;;5031439;28;20041;-61
2023/06/12 01:05:20;;;;;;;26.67;16.95;;;;;;;;;;5026716;28;20064;-62
2023/06/12 01:07:52;;;;;;;24.37;16.83;;;;;;;;;;5011738;28;20056;-61
2023/06/12 01:10:24;;;;;;;25.85;17.42;;;;;;;;;;5019655;28;20184;-62
2023/06/12 01:12:53;;;;;;;29.05;18.55;;;;;;;;;;5023880;28;20036;-62
2023/06/12 01:15:20;;;;;;;25.40;17.42;;;;;;;;;;5013597;28;20053;-61
2023/06/12 01:17:48;;;;;;;26.52;17.45;;;;;;;;;;5007273;28;20116;-61
2023/06/12 01:20:17;;;;;;;26.50;18.33;;;;;;;;;;5015776;28;20041;-61
2023/06/12 01:22:49;;;;;;;27.63;16.77;;;;;;;;;;5013559;28;20495;-61
2023/06/12 01:25:25;;;;;;;24.27;17.38;;;;;;;;;;5014514;28;20038;-62
2023/06/12 01:27:59;;;;;;;29.70;17.10;;;;;;;;;;5021789;28;20049;-62
2023/06/12 01:30:42;;;;;;;29.17;17.60;;;;;;;;;;5012248;28;20037;-62
2023/06/12 01:33:17;;;;;;;25.23;16.53;;;;;;;;;;4965809;28;20045;-61
2023/06/12 01:35:46;;;;;;;24.25;16.75;;;;;;;;;;5012669;28;20037;-61
2023/06/12 01:38:17;;;;;;;25.80;16.33;;;;;;;;;;5011054;28;20033;-61
2023/06/12 01:40:46;;;;;;;24.25;16.10;;;;;;;;;;5018865;28;20475;-61
2023/06/12 01:43:14;;;;;;;24.55;17.45;;;;;;;;;;5017206;28;20064;-61
2023/06/12 01:45:42;;;;;;;26.77;17.03;;;;;;;;;;5010786;28;20037;-61
2023/06/12 01:48:13;;;;;;;25.95;17.63;;;;;;;;;;5027218;28;20131;-61
2023/06/12 01:50:43;;;;;;;26.23;17.77;;;;;;;;;;5019464;28;20536;-61
2023/06/12 01:53:13;;;;;;;26.42;17.80;;;;;;;;;;5015016;28;20055;-61
2023/06/12 01:55:41;;;;;;;26.88;17.15;;;;;;;;;;5009356;28;20418;-61
2023/06/12 01:58:09;;;;;;;24.77;17.60;;;;;;;;;;5008859;28;20119;-61
2023/06/12 02:00:37;;;;;;;25.60;17.98;;;;;;;;;;5024421;28;20470;-61
2023/06/12 02:03:06;;;;;;;24.80;17.33;;;;;;;;;;4999810;28;21889;-61
2023/06/12 02:05:35;;;;;;;25.77;17.45;;;;;;;;;;5022208;28;20047;-61
2023/06/12 02:08:03;;;;;;;26.50;17.52;;;;;;;;;;5008584;28;20044;-61
2023/06/12 02:10:31;;;;;;;26.13;18.07;;;;;;;;;;5019450;28;20052;-61
2023/06/12 02:12:59;;;;;;;26.33;18.10;;;;;;;;;;5015705;28;20044;-61
2023/06/12 02:15:28;;;;;;;30.05;17.33;;;;;;;;;;5022089;28;20044;-61
2023/06/12 02:17:56;;;;;;;26.17;17.30;;;;;;;;;;5010103;28;20044;-61
2023/06/12 02:20:24;;;;;;;24.13;17.40;;;;;;;;;;5021925;28;20120;-61
2023/06/12 02:22:53;;;;;;;28.37;17.73;;;;;;;;;;5021073;28;20041;-62
2023/06/12 02:25:20;;;;;;;27.77;18.00;;;;;;;;;;5004983;28;20034;-61
2023/06/12 02:27:48;;;;;;;25.58;16.95;;;;;;;;;;5027876;28;20041;-61
2023/06/12 02:30:16;;;;;;;28.13;18.98;;;;;;;;;;5004743;28;20059;-62
2023/06/12 02:32:43;;;;;;;33.17;19.60;;;;;;;;;;5012556;28;20037;-61
2023/06/12 02:35:12;;;;;;;32.27;19.90;;;;;;;;;;5003431;28;20039;-62
2023/06/12 02:37:42;;;;;;;31.30;20.30;;;;;;;;;;4965480;28;20064;-61
2023/06/12 02:40:12;;;;;;;32.58;20.30;;;;;;;;;;5022132;28;20048;-61
2023/06/12 02:42:40;;;;;;;34.58;20.55;;;;;;;;;;5018680;28;20052;-61
2023/06/12 02:45:09;;;;;;;33.65;19.58;;;;;;;;;;5016035;28;20461;-61
2023/06/12 02:47:37;;;;;;;34.80;20.53;;;;;;;;;;5014156;28;20045;-61
2023/06/12 02:50:05;;;;;;;35.95;20.95;;;;;;;;;;5022969;28;20487;-61
2023/06/12 02:52:33;;;;;;;33.53;20.60;;;;;;;;;;5014434;28;20033;-61
2023/06/12 02:55:01;;;;;;;34.65;20.67;;;;;;;;;;5016313;28;20574;-62
2023/06/12 02:57:31;;;;;;;34.47;21.48;;;;;;;;;;5005439;28;20048;-62
2023/06/12 02:59:59;;;;;;;34.97;21.33;;;;;;;;;;5020292;28;20045;-60
2023/06/12 03:02:27;;;;;;;34.20;21.27;;;;;;;;;;5010788;28;22289;-60
2023/06/12 03:04:55;;;;;;;33.58;20.42;;;;;;;;;;5023852;28;20045;-59
2023/06/12 03:07:23;;;;;;;37.60;21.17;;;;;;;;;;5005198;28;20037;-59
2023/06/12 03:09:51;;;;;;;32.55;20.45;;;;;;;;;;5019189;28;20442;-59
2023/06/12 03:12:19;;;;;;;36.10;21.27;;;;;;;;;;4961956;28;20862;-59
2023/06/12 03:14:50;;;;;;;35.53;22.05;;;;;;;;;;5021683;28;20506;-62
2023/06/12 03:17:19;;;;;;;36.63;22.25;;;;;;;;;;4979425;28;20037;-59
2023/06/12 03:19:47;;;;;;;35.40;21.42;;;;;;;;;;5017984;28;20043;-60
2023/06/12 03:22:15;;;;;;;35.83;21.52;;;;;;;;;;5014441;28;20053;-59
2023/06/12 03:24:43;;;;;;;36.90;21.90;;;;;;;;;;5026647;28;20037;-61
2023/06/12 03:27:11;;;;;;;36.45;21.85;;;;;;;;;;5019510;28;20063;-61
2023/06/12 03:29:39;;;;;;;36.65;21.58;;;;;;;;;;5017307;28;20037;-62
2023/06/12 03:32:09;;;;;;;37.30;21.58;;;;;;;;;;5021761;28;20388;-62
2023/06/12 03:34:37;;;;;;;37.83;21.80;;;;;;;;;;5012765;28;20491;-61
2023/06/12 03:37:05;;;;;;;36.70;21.43;;;;;;;;;;5022775;28;20973;-61
2023/06/12 03:39:33;;;;;;;31.67;20.38;;;;;;;;;;5013108;28;20434;-61
2023/06/12 03:42:02;;;;;;;32.72;19.33;;;;;;;;;;5016397;28;20487;-61
2023/06/12 03:44:30;;;;;;;33.65;20.17;;;;;;;;;;5020647;28;20037;-61
2023/06/12 03:46:58;;;;;;;35.85;19.48;;;;;;;;;;5025967;28;20041;-61
2023/06/12 03:49:27;;;;;;;34.43;20.23;;;;;;;;;;5009404;28;20037;-61
2023/06/12 03:51:54;;;;;;;30.02;19.92;;;;;;;;;;5016182;28;20044;-61
2023/06/12 03:54:22;;;;;;;31.25;19.40;;;;;;;;;;4994054;28;20053;-61
2023/06/12 03:56:50;;;;;;;31.48;19.30;;;;;;;;;;5018890;28;20056;-61
2023/06/12 03:59:18;;;;;;;29.90;18.92;;;;;;;;;;5023252;28;20087;-62
2023/06/12 04:01:48;;;;;;;33.83;18.57;;;;;;;;;;5017173;28;20111;-60
2023/06/12 04:04:16;;;;;;;30.17;18.27;;;;;;;;;;5011080;28;20106;-60
2023/06/12 04:06:45;;;;;;;33.03;18.90;;;;;;;;;;5024530;28;20095;-59
2023/06/12 04:09:14;;;;;;;31.83;19.13;;;;;;;;;;4997621;28;20523;-60
2023/06/12 04:11:44;;;;;;;32.50;20.20;;;;;;;;;;5023631;28;20106;-60
2023/06/12 04:14:11;;;;;;;29.37;19.20;;;;;;;;;;5017490;28;20041;-60
2023/06/12 04:16:39;;;;;;;30.55;18.77;;;;;;;;;;5027751;28;20065;-59
2023/06/12 04:19:07;;;;;;;29.65;19.33;;;;;;;;;;5014180;28;20049;-59
2023/06/12 04:21:35;;;;;;;29.48;18.05;;;;;;;;;;5036063;28;20041;-59
2023/06/12 04:24:13;;;;;;;32.10;19.38;;;;;;;;;;5008113;28;20044;-60
2023/06/12 04:26:43;;;;;;;30.33;19.73;;;;;;;;;;5017730;28;20748;-60
2023/06/12 04:29:12;;;;;;;26.35;17.50;;;;;;;;;;5018878;28;20041;-60
2023/06/12 04:31:40;;;;;;;27.85;17.67;;;;;;;;;;5015818;28;20045;-60
2023/06/12 04:34:09;;;;;;;29.65;18.55;;;;;;;;;;5011363;28;20049;-60
2023/06/12 04:36:39;;;;;;;28.63;17.20;;;;;;;;;;5010555;28;20127;-60
2023/06/12 04:39:11;;;;;;;28.93;17.10;;;;;;;;;;5009535;28;20456;-63
2023/06/12 04:41:40;;;;;;;28.00;17.02;;;;;;;;;;5015720;28;20521;-60
2023/06/12 04:44:08;;;;;;;28.65;18.20;;;;;;;;;;5015450;28;20044;-60
2023/06/12 04:46:36;;;;;;;28.13;18.38;;;;;;;;;;5009385;28;20388;-60
2023/06/12 04:49:03;;;;;;;27.95;18.48;;;;;;;;;;5018301;28;20037;-60
2023/06/12 04:51:31;;;;;;;27.67;17.17;;;;;;;;;;5006318;28;20064;-60
2023/06/12 04:54:01;;;;;;;29.48;17.55;;;;;;;;;;5027039;28;20048;-60
2023/06/12 04:56:34;;;;;;;28.95;17.45;;;;;;;;;;5012331;28;20044;-60
2023/06/12 04:59:02;;;;;;;28.42;17.25;;;;;;;;;;5016069;28;20044;-60
2023/06/12 05:01:30;;;;;;;29.50;18.63;;;;;;;;;;5012935;28;20037;-60
2023/06/12 05:03:58;;;;;;;23.30;15.83;;;;;;;;;;5014417;28;20519;-60
2023/06/12 05:06:28;;;;;;;30.15;17.77;;;;;;;;;;5010891;28;20107;-60
2023/06/12 05:08:56;;;;;;;28.55;18.15;;;;;;;;;;5016104;28;20033;-60
2023/06/12 05:11:24;;;;;;;31.15;19.25;;;;;;;;;;5015960;28;20293;-60
2023/06/12 05:13:54;;;;;;;28.33;17.80;;;;;;;;;;5031491;28;20045;-60
2023/06/12 05:16:22;;;;;;;30.10;18.33;;;;;;;;;;5016582;28;20360;-59
2023/06/12 05:18:51;;;;;;;29.05;18.77;;;;;;;;;;5005831;28;20045;-61
2023/06/12 05:21:19;;;;;;;28.70;18.33;;;;;;;;;;5031786;28;20033;-60
2023/06/12 05:23:48;;;;;;;25.30;17.42;;;;;;;;;;5011104;28;20037;-60
2023/06/12 05:26:16;;;;;;;26.30;16.83;;;;;;;;;;5014583;28;20053;-60
2023/06/12 05:28:43;;;;;;;28.27;18.33;;;;;;;;;;5009251;28;20040;-60
2023/06/12 05:31:12;;;;;;;29.98;18.08;;;;;;;;;;5018672;28;20120;-60
2023/06/12 05:33:41;;;;;;;28.42;17.40;;;;;;;;;;5016073;28;20051;-58
2023/06/12 05:36:10;;;;;;;25.40;18.05;;;;;;;;;;5020610;28;20071;-60
2023/06/12 05:38:38;;;;;;;25.60;17.55;;;;;;;;;;5014842;28;21034;-60
2023/06/12 05:41:06;;;;;;;25.07;16.63;;;;;;;;;;5010375;28;20037;-60
2023/06/12 05:43:34;;;;;;;27.30;17.70;;;;;;;;;;5024455;28;20052;-60
2023/06/12 05:46:02;;;;;;;23.17;15.80;;;;;;;;;;5023770;28;20091;-59
2023/06/12 05:48:31;;;;;;;25.10;16.83;;;;;;;;;;5005935;28;20461;-60
2023/06/12 05:50:59;;;;;;;29.08;18.95;;;;;;;;;;5024048;28;20098;-60
2023/06/12 05:53:27;;;;;;;26.30;16.70;;;;;;;;;;5007498;28;20498;-59
2023/06/12 05:55:55;;;;;;;30.42;17.13;;;;;;;;;;5021018;28;20079;-60
2023/06/12 05:58:23;;;;;;;24.65;16.15;;;;;;;;;;5010731;28;20507;-59
2023/06/12 06:00:52;;;;;;;24.33;16.52;;;;;;;;;;5023612;28;20386;-60
2023/06/12 06:03:23;;;;;;;26.17;16.02;;;;;;;;;;5017019;28;20090;-60
2023/06/12 06:05:52;;;;;;;26.43;17.80;;;;;;;;;;4986055;28;20092;-60
2023/06/12 06:08:20;;;;;;;26.00;17.02;;;;;;;;;;5022518;28;20152;-60
2023/06/12 06:10:48;;;;;;;22.45;16.25;;;;;;;;;;4999484;28;20278;-60
2023/06/12 06:13:16;;;;;;;24.88;15.98;;;;;;;;;;5026104;28;20060;-60
2023/06/12 06:15:45;;;;;;;24.27;15.68;;;;;;;;;;5018783;28;20067;-60
2023/06/12 06:18:15;;;;;;;23.93;16.13;;;;;;;;;;5011646;28;20399;-59
2023/06/12 06:20:43;;;;;;;23.98;16.40;;;;;;;;;;5020185;28;20041;-60
2023/06/12 06:23:12;;;;;;;25.23;16.20;;;;;;;;;;5010388;28;20056;-60
2023/06/12 06:25:40;;;;;;;22.63;14.80;;;;;;;;;;5026962;28;20042;-60
2023/06/12 06:28:08;;;;;;;22.15;16.25;;;;;;;;;;5027080;28;20067;-61
2023/06/12 06:30:36;;;;;;;23.10;15.87;;;;;;;;;;5009563;28;20037;-60
2023/06/12 06:33:04;;;;;;;27.42;16.45;;;;;;;;;;5010253;28;20049;-60
2023/06/12 06:35:32;;;;;;;24.75;15.70;;;;;;;;;;5018873;28;20487;-60
2023/06/12 06:37:59;;;;;;;24.77;16.05;;;;;;;;;;5012246;28;20054;-60
2023/06/12 06:40:28;;;;;;;21.85;15.68;;;;;;;;;;5012650;28;20428;-60
2023/06/12 06:42:57;;;;;;;22.20;15.20;;;;;;;;;;5020142;28;20447;-60
2023/06/12 06:45:27;;;;;;;24.20;16.23;;;;;;;;;;5012396;28;20048;-60
2023/06/12 06:47:54;;;;;;;22.38;15.82;;;;;;;;;;5012062;28;20045;-60
2023/06/12 06:50:22;;;;;;;27.15;15.57;;;;;;;;;;5004889;28;20037;-59
2023/06/12 06:52:50;;;;;;;22.05;15.55;;;;;;;;;;5020091;28;20060;-60
2023/06/12 06:55:18;;;;;;;22.47;16.00;;;;;;;;;;5017319;28;20040;-62
2023/06/12 06:57:50;;;;;;;22.13;15.50;;;;;;;;;;5020537;28;20045;-62
2023/06/12 07:00:20;;;;;;;22.77;16.25;;;;;;;;;;5016253;28;20517;-62
2023/06/12 07:02:48;;;;;;;24.27;17.42;;;;;;;;;;5020948;28;20180;-62
2023/06/12 07:05:16;;;;;;;21.65;15.93;;;;;;;;;;5014991;28;20494;-62
2023/06/12 07:07:44;;;;;;;25.80;17.27;;;;;;;;;;5023316;28;20071;-62
2023/06/12 07:10:27;;;;;;;25.65;16.35;;;;;;;;;;5018088;28;20125;-60
2023/06/12 07:12:57;;;;;;;24.50;16.67;;;;;;;;;;5024830;28;20076;-60
2023/06/12 07:15:25;;;;;;;24.02;16.27;;;;;;;;;;5013486;28;20047;-59
2023/06/12 07:17:53;;;;;;;21.73;16.58;;;;;;;;;;5023509;28;20033;-60
2023/06/12 07:20:21;;;;;;;23.40;16.47;;;;;;;;;;5022849;28;20798;-59
2023/06/12 07:22:49;;;;;;;27.67;17.65;;;;;;;;;;5026549;28;20052;-60
2023/06/12 07:25:17;;;;;;;24.67;18.27;;;;;;;;;;5007410;28;20495;-61
2023/06/12 07:27:47;;;;;;;25.90;17.55;;;;;;;;;;5023575;28;20047;-60
2023/06/12 07:30:16;;;;;;;25.00;17.73;;;;;;;;;;5009714;28;20098;-60
2023/06/12 07:32:44;;;;;;;25.40;17.03;;;;;;;;;;5018697;28;21419;-61
2023/06/12 07:35:12;;;;;;;27.48;17.83;;;;;;;;;;5017382;28;20056;-61
2023/06/12 07:37:40;;;;;;;24.65;17.45;;;;;;;;;;5020710;28;20071;-57
2023/06/12 07:40:08;;;;;;;25.05;18.42;;;;;;;;;;4998956;28;20049;-61
2023/06/12 07:42:36;;;;;;;23.10;17.27;;;;;;;;;;5020485;28;20045;-61
2023/06/12 07:45:04;;;;;;;26.20;17.50;;;;;;;;;;5016259;28;20051;-61
2023/06/12 07:47:33;;;;;;;25.17;17.88;;;;;;;;;;5006212;28;20037;-61
2023/06/12 07:50:02;;;;;;;24.30;17.33;;;;;;;;;;5008888;28;20087;-61
2023/06/12 07:52:30;;;;;;;29.77;17.25;;;;;;;;;;5024577;28;20940;-61
2023/06/12 07:54:58;;;;;;;25.25;16.85;;;;;;;;;;5017938;28;20112;-62
2023/06/12 07:57:26;;;;;;;22.90;16.83;;;;;;;;;;5026713;28;20169;-62
2023/06/12 07:59:53;;;;;;;21.73;15.55;;;;;;;;;;5019694;28;20041;-62
2023/06/12 08:02:21;;;;;;;25.08;17.63;;;;;;;;;;5019869;28;20320;-60
2023/06/12 08:04:51;;;;;;;26.08;18.65;;;;;;;;;;5016064;28;20472;-62
2023/06/12 08:07:19;;;;;;;24.85;17.65;;;;;;;;;;5008012;28;20037;-62
2023/06/12 08:09:47;;;;;;;25.10;17.67;;;;;;;;;;5017010;28;20045;-62
2023/06/12 08:12:17;;;;;;;23.60;17.15;;;;;;;;;;5015909;28;20449;-62
2023/06/12 08:14:47;;;;;;;27.67;18.00;;;;;;;;;;5021598;28;20071;-60
2023/06/12 08:17:14;;;;;;;24.60;18.80;;;;;;;;;;5006907;28;20068;-61
2023/06/12 08:19:43;;;;;;;26.85;17.50;;;;;;;;;;5020520;28;20076;-61
2023/06/12 08:22:12;;;;;;;27.47;18.87;;;;;;;;;;5009125;28;20041;-61
2023/06/12 08:24:44;;;;;;;26.73;19.45;;;;;;;;;;5014691;28;20107;-61
2023/06/12 08:27:12;;;;;;;25.83;17.48;;;;;;;;;;4981589;28;20120;-61
2023/06/12 08:29:40;;;;;;;25.95;18.95;;;;;;;;;;4985683;28;20048;-61
2023/06/12 08:32:10;;;;;;;30.17;20.02;;;;;;;;;;5009120;28;20134;-61
2023/06/12 08:34:38;;;;;;;28.87;20.63;;;;;;;;;;5033279;28;20588;-60
2023/06/12 08:37:06;;;;;;;27.95;18.67;;;;;;;;;;5020607;28;20056;-60
2023/06/12 08:39:35;;;;;;;22.02;15.13;;;;;;;;;;5007103;28;20410;-60
2023/06/12 08:42:05;;;;;;;26.35;19.40;;;;;;;;;;5006442;28;20046;-61
2023/06/12 08:44:33;;;;;;;26.63;17.23;;;;;;;;;;5016054;28;20047;-60
2023/06/12 08:47:03;;;;;;;35.07;21.87;;;;;;;;;;4991173;28;20051;-61
2023/06/12 08:49:31;;;;;;;32.15;20.80;;;;;;;;;;5024761;28;20044;-61
2023/06/12 08:52:00;;;;;;;29.85;19.92;;;;;;;;;;5015694;28;20049;-62
2023/06/12 08:54:29;;;;;;;32.45;22.23;;;;;;;;;;5023182;28;20284;-61
2023/06/12 08:56:59;;;;;;;33.95;21.20;;;;;;;;;;5007509;28;20609;-61
2023/06/12 08:59:28;;;;;;;30.23;20.90;;;;;;;;;;5025448;28;20033;-61
2023/06/12 09:01:57;;;;;;;20.55;13.55;;;;;;;;;;4989054;28;20049;-61
2023/06/12 09:04:33;;;;;;;30.95;22.00;;;;;;;;;;4999003;28;20049;-60
2023/06/12 09:07:05;;;;;;;24.40;17.15;;;;;;;;;;4982200;28;20056;-61
2023/06/12 09:09:36;;;;;;;32.63;22.70;;;;;;;;;;5006973;28;20059;-61
2023/06/12 09:12:07;;;;;;;33.37;22.73;;;;;;;;;;4980969;28;20055;-61
2023/06/12 09:14:35;;;;;;;32.15;22.67;;;;;;;;;;5010715;28;20048;-61
2023/06/12 09:17:04;;;;;;;31.95;22.17;;;;;;;;;;4989364;28;20069;-61
2023/06/12 09:19:40;;;;;;;32.65;23.25;;;;;;;;;;5006736;28;20041;-61
2023/06/12 09:22:08;;;;;;;26.88;18.38;;;;;;;;;;4997357;28;20478;-61
2023/06/12 09:24:36;;;;;;;29.97;21.23;;;;;;;;;;4997300;28;20037;-61
2023/06/12 09:27:06;;;;;;;28.50;18.92;;;;;;;;;;4983248;28;20052;-61
2023/06/12 09:29:34;;;;;;;32.00;23.35;;;;;;;;;;5005423;28;20041;-61
2023/06/12 09:32:03;;;;;;;33.00;22.58;;;;;;;;;;4989031;28;20619;-61
2023/06/12 09:34:31;;;;;;;22.83;16.50;;;;;;;;;;4978495;28;20534;-61
2023/06/12 09:37:00;;;;;;;33.00;22.37;;;;;;;;;;4980166;28;20053;-61
2023/06/12 09:39:29;;;;;;;14.38;10.35;;;;;;;;;;5006493;28;20481;-60
2023/06/12 09:41:57;;;;;;;15.18;10.88;;;;;;;;;;4987726;28;20691;-62
2023/06/12 09:44:28;;;;;;;21.73;16.23;;;;;;;;;;5005755;28;20036;-62
2023/06/12 09:47:01;;;;;;;34.78;24.80;;;;;;;;;;4985648;28;21310;-62
2023/06/12 09:49:31;;;;;;;22.37;16.23;;;;;;;;;;5005873;28;20040;-62
2023/06/12 09:52:02;;;;;;;28.45;20.65;;;;;;;;;;5003246;28;20399;-62
2023/06/12 09:54:33;;;;;;;19.02;13.85;;;;;;;;;;5009355;28;20674;-63
2023/06/12 09:57:06;;;;;;;12.43;8.60;;;;;;;;;;4987629;28;20379;-63
2023/06/12 09:59:36;;;;;;;20.05;13.07;;;;;;;;;;4997078;28;20055;-63
2023/06/12 10:02:06;;;;;;;10.60;7.50;;;;;;;;;;5002654;28;20540;-63
2023/06/12 10:04:37;;;;;;;28.90;22.02;;;;;;;;;;4994117;28;20514;-62
2023/06/12 10:07:12;;;;;;;13.75;10.18;;;;;;;;;;4988251;28;20048;-63
2023/06/12 10:09:40;;;;;;;29.13;20.67;;;;;;;;;;4985161;28;20055;-63
2023/06/12 10:12:08;;;;;;;14.60;8.80;;;;;;;;;;4998322;28;20037;-63
2023/06/12 10:14:38;;;;;;;22.30;15.50;;;;;;;;;;4999597;28;20045;-62
2023/06/12 10:17:07;;;;;;;31.70;22.63;;;;;;;;;;4999312;28;20048;-62
2023/06/12 10:19:36;;;;;;;30.60;21.33;;;;;;;;;;4997390;28;20493;-62
2023/06/12 10:22:06;;;;;;;30.27;22.60;;;;;;;;;;5002745;28;20039;-62
2023/06/12 10:24:34;;;;;;;28.10;20.00;;;;;;;;;;5009637;28;20064;-62
2023/06/12 10:27:03;;;;;;;26.93;19.00;;;;;;;;;;5015720;28;20049;-62
2023/06/12 10:29:32;;;;;;;30.15;19.55;;;;;;;;;;5022130;28;20055;-62
2023/06/12 10:32:07;;;;;;;21.75;15.20;;;;;;;;;;5009103;28;20567;-60
2023/06/12 10:34:35;;;;;;;21.95;14.65;;;;;;;;;;5019641;28;20041;-63
2023/06/12 10:37:21;;;;;;;28.05;19.48;;;;;;;;;;4987528;28;20647;-63
2023/06/12 10:39:49;;;;;;;29.97;19.43;;;;;;;;;;5028716;28;20120;-63
2023/06/12 10:42:18;;;;;;;18.02;11.13;;;;;;;;;;5005707;28;20048;-63
2023/06/12 10:44:49;;;;;;;21.33;13.73;;;;;;;;;;5016615;28;20044;-62
2023/06/12 10:47:19;;;;;;;27.33;18.30;;;;;;;;;;5010717;28;20521;-62
2023/06/12 10:49:57;;;;;;;20.38;14.65;;;;;;;;;;5018901;28;20041;-62
2023/06/12 10:52:25;;;;;;;17.87;12.90;;;;;;;;;;5012315;28;20108;-62
2023/06/12 10:55:11;;;;;;;16.75;11.77;;;;;;;;;;5008615;28;20034;-62
2023/06/12 10:57:41;;;;;;;10.48;7.15;;;;;;;;;;5022817;28;20127;-63
2023/06/12 11:00:10;;;;;;;9.40;6.65;;;;;;;;;;5014805;28;20046;-62
2023/06/12 11:02:40;;;;;;;12.88;8.43;;;;;;;;;;5022935;28;20041;-62
2023/06/12 11:05:11;;;;;;;10.67;7.23;;;;;;;;;;5025568;28;20048;-61
2023/06/12 11:07:40;;;;;;;16.63;10.07;;;;;;;;;;5018186;28;20037;-61
2023/06/12 11:10:09;;;;;;;12.75;9.50;;;;;;;;;;5001125;28;20045;-62
2023/06/12 11:12:37;;;;;;;17.05;11.57;;;;;;;;;;5015626;28;20041;-64
2023/06/12 11:15:20;;;;;;;14.65;9.60;;;;;;;;;;5012563;28;20525;-62
2023/06/12 11:17:50;;;;;;;9.30;5.10;;;;;;;;;;5019291;28;20505;-62
2023/06/12 11:20:19;;;;;;;9.13;6.13;;;;;;;;;;5017300;28;20045;-62
2023/06/12 11:22:47;;;;;;;21.48;15.35;;;;;;;;;;5020017;28;20045;-61
2023/06/12 11:25:16;;;;;;;7.97;5.53;;;;;;;;;;5019791;28;20072;-61
2023/06/12 11:27:45;;;;;;;21.55;16.25;;;;;;;;;;5017269;28;20043;-62
2023/06/12 11:30:15;;;;;;;10.80;7.97;;;;;;;;;;5019726;28;20037;-62
2023/06/12 11:33:05;;;;;;;12.38;8.73;;;;;;;;;;5021717;28;20124;-61
2023/06/12 11:35:33;;;;;;;20.90;15.52;;;;;;;;;;5014398;28;20044;-62
2023/06/12 11:38:01;;;;;;;11.38;7.20;;;;;;;;;;5032324;28;20055;-57
2023/06/12 11:40:31;;;;;;;12.38;7.93;;;;;;;;;;5014427;28;20059;-62
2023/06/12 11:42:59;;;;;;;12.47;8.53;;;;;;;;;;5028416;28;20060;-62
2023/06/12 11:45:30;;;;;;;11.23;7.93;;;;;;;;;;5014475;28;20037;-60
2023/06/12 11:47:58;;;;;;;17.20;12.23;;;;;;;;;;5013009;28;20046;-60
2023/06/12 11:50:30;;;;;;;11.27;8.45;;;;;;;;;;5023078;28;20573;-60
2023/06/12 11:52:59;;;;;;;18.15;13.20;;;;;;;;;;5014451;28;20048;-60
2023/06/12 11:55:27;;;;;;;11.87;9.43;;;;;;;;;;5021428;28;20037;-60
2023/06/12 11:58:02;;;;;;;9.77;6.85;;;;;;;;;;5018436;28;20037;-60
2023/06/12 12:00:31;;;;;;;13.63;9.48;;;;;;;;;;5026546;28;20068;-61
2023/06/12 12:03:01;;;;;;;8.18;6.03;;;;;;;;;;5025021;28;20483;-61
2023/06/12 12:05:33;;;;;;;8.10;5.63;;;;;;;;;;5020597;28;20049;-61
2023/06/12 12:08:03;;;;;;;9.43;6.43;;;;;;;;;;5024542;28;20060;-60
2023/06/12 12:10:33;;;;;;;8.00;5.38;;;;;;;;;;5008620;28;20049;-61
2023/06/12 12:13:01;;;;;;;5.78;3.92;;;;;;;;;;5026044;28;20459;-61
2023/06/12 12:15:30;;;;;;;9.07;5.15;;;;;;;;;;5016281;28;20153;-61
2023/06/12 12:17:58;;;;;;;11.20;7.45;;;;;;;;;;5024011;28;20880;-61
2023/06/12 12:20:27;;;;;;;7.23;4.53;;;;;;;;;;5012941;28;20128;-61
2023/06/12 12:22:58;;;;;;;6.00;3.90;;;;;;;;;;5018520;28;20068;-61
2023/06/12 12:25:27;;;;;;;6.43;4.00;;;;;;;;;;4999083;28;20041;-62
2023/06/12 12:27:56;;;;;;;6.32;3.67;;;;;;;;;;5019473;28;20434;-61
2023/06/12 12:30:23;;;;;;;9.82;6.07;;;;;;;;;;5017514;28;20183;-61
2023/06/12 12:32:52;;;;;;;13.23;10.43;;;;;;;;;;5008483;28;20151;-62
2023/06/12 12:35:21;;;;;;;11.15;7.40;;;;;;;;;;5015099;28;20037;-62
2023/06/12 12:37:49;;;;;;;12.48;9.13;;;;;;;;;;5034073;28;20078;-63
2023/06/12 12:40:18;;;;;;;9.07;5.70;;;;;;;;;;5006175;28;20422;-62
2023/06/12 12:42:46;;;;;;;8.65;5.57;;;;;;;;;;5026007;28;20223;-62
2023/06/12 12:45:15;;;;;;;6.77;4.63;;;;;;;;;;5007935;28;20038;-61
2023/06/12 12:47:44;;;;;;;6.97;4.68;;;;;;;;;;5026461;28;20045;-59
2023/06/12 12:50:12;;;;;;;10.23;7.13;;;;;;;;;;5001388;28;20067;-60
2023/06/12 12:52:50;;;;;;;8.10;5.30;;;;;;;;;;5023126;28;20465;-61
2023/06/12 12:55:19;;;;;;;7.05;4.13;;;;;;;;;;5008698;28;20051;-61
2023/06/12 12:57:47;;;;;;;10.03;7.13;;;;;;;;;;5010997;28;20123;-61
2023/06/12 13:00:17;;;;;;;5.65;3.17;;;;;;;;;;5029560;28;20462;-61
2023/06/12 13:02:46;;;;;;;5.90;3.78;;;;;;;;;;5013230;28;20784;-60
2023/06/12 13:05:16;;;;;;;9.32;6.72;;;;;;;;;;5018341;28;20041;-61
2023/06/12 13:07:45;;;;;;;6.05;3.90;;;;;;;;;;5007372;28;20148;-61
2023/06/12 13:10:17;;;;;;;11.77;8.03;;;;;;;;;;5006039;28;20057;-62
2023/06/12 13:12:46;;;;;;;11.95;9.18;;;;;;;;;;5025484;28;20044;-61
2023/06/12 13:15:14;;;;;;;10.73;6.72;;;;;;;;;;5011731;28;20041;-61
2023/06/12 13:17:41;;;;;;;9.35;6.88;;;;;;;;;;5009028;28;20032;-60
2023/06/12 13:20:10;;;;;;;14.68;9.95;;;;;;;;;;5017663;28;20530;-61
2023/06/12 13:22:38;;;;;;;10.50;7.60;;;;;;;;;;4996423;28;20037;-61
2023/06/12 13:25:06;;;;;;;8.88;5.47;;;;;;;;;;5016188;28;20060;-60
2023/06/12 13:27:34;;;;;;;11.30;6.93;;;;;;;;;;5011018;28;20056;-60
2023/06/12 13:30:03;;;;;;;6.95;4.50;;;;;;;;;;5013765;28;20064;-60
2023/06/12 13:32:33;;;;;;;5.78;3.58;;;;;;;;;;5015544;28;20110;-60
2023/06/12 13:35:01;;;;;;;12.30;8.90;;;;;;;;;;5019683;28;20742;-58
2023/06/12 13:37:28;;;;;;;5.40;3.03;;;;;;;;;;5009784;28;20052;-61
2023/06/12 13:39:56;;;;;;;7.35;4.75;;;;;;;;;;5020095;28;20574;-61
2023/06/12 13:42:25;;;;;;;8.57;5.22;;;;;;;;;;5013254;28;20072;-61
2023/06/12 13:44:53;;;;;;;13.50;10.25;;;;;;;;;;5023895;28;20119;-61
2023/06/12 13:47:25;;;;;;;5.73;3.17;;;;;;;;;;4997028;28;20513;-60
2023/06/12 13:49:53;;;;;;;7.88;5.45;;;;;;;;;;5017672;28;20048;-60
2023/06/12 13:52:20;;;;;;;9.82;6.72;;;;;;;;;;5016717;28;20379;-60
2023/06/12 13:54:48;;;;;;;8.05;5.43;;;;;;;;;;5008188;28;20609;-61
2023/06/12 13:57:17;;;;;;;9.88;7.65;;;;;;;;;;5020501;28;20044;-61
2023/06/12 13:59:45;;;;;;;5.90;3.57;;;;;;;;;;5010276;28;20069;-61
2023/06/12 14:02:13;;;;;;;8.73;6.20;;;;;;;;;;5020437;28;20100;-60
2023/06/12 14:04:42;;;;;;;7.22;4.30;;;;;;;;;;5018741;28;21295;-57
2023/06/12 14:07:10;;;;;;;10.82;7.63;;;;;;;;;;5017260;28;20146;-61
2023/06/12 14:09:39;;;;;;;6.78;4.35;;;;;;;;;;5019218;28;20045;-60
2023/06/12 14:12:08;;;;;;;10.67;6.93;;;;;;;;;;5027143;28;20115;-60
2023/06/12 14:14:36;;;;;;;10.73;7.90;;;;;;;;;;5007653;28;20036;-62
2023/06/12 14:17:04;;;;;;;7.07;5.18;;;;;;;;;;5025348;28;20127;-61
2023/06/12 14:19:32;;;;;;;8.27;6.40;;;;;;;;;;5015539;28;20087;-62
2023/06/12 14:22:02;;;;;;;9.77;7.22;;;;;;;;;;5014761;28;20041;-62
2023/06/12 14:24:29;;;;;;;12.07;9.03;;;;;;;;;;5024557;28;20055;-61
2023/06/12 14:27:05;;;;;;;6.53;4.85;;;;;;;;;;5012474;28;20037;-62
2023/06/12 14:29:33;;;;;;;7.45;4.82;;;;;;;;;;5013118;28;20041;-61
2023/06/12 14:32:02;;;;;;;7.65;4.15;;;;;;;;;;5005781;28;20047;-60